createdAt,value
2016-05-17T00:00:26.578Z,1009.74
2016-05-17T00:01:26.597Z,1009.77
2016-05-17T00:02:26.615Z,1009.71
2016-05-17T00:04:26.667Z,1009.68
2016-05-17T00:05:26.685Z,1009.63
2016-05-17T00:06:26.703Z,1009.71
2016-05-17T00:07:26.722Z,1009.68
2016-05-17T00:08:26.740Z,1009.74
2016-05-17T00:09:26.774Z,1009.74
2016-05-17T00:10:26.792Z,1009.84
2016-05-17T00:11:26.811Z,1009.76
2016-05-17T00:12:26.830Z,1009.73
2016-05-17T00:13:26.847Z,1009.75
2016-05-17T00:14:26.866Z,1009.74
2016-05-17T00:15:26.899Z,1009.71
2016-05-17T00:16:26.918Z,1009.65
2016-05-17T00:17:26.936Z,1009.69
2016-05-17T00:18:26.954Z,1009.64
2016-05-17T00:20:27.007Z,1009.68
2016-05-17T00:21:27.026Z,1009.71
2016-05-17T00:22:27.044Z,1009.66
2016-05-17T00:23:27.062Z,1009.64
2016-05-17T00:24:27.080Z,1009.69
2016-05-17T00:25:27.098Z,1009.65
2016-05-17T00:26:27.132Z,1009.65
2016-05-17T00:27:27.151Z,1009.63
2016-05-17T00:28:27.170Z,1009.67
2016-05-17T00:29:27.187Z,1009.66
2016-05-17T00:30:27.206Z,1009.66
2016-05-17T00:31:27.239Z,1009.65
2016-05-17T00:32:27.259Z,1009.71
2016-05-17T00:33:27.276Z,1009.63
2016-05-17T00:34:27.294Z,1009.66
2016-05-17T00:36:27.409Z,1009.65
2016-05-17T00:37:27.365Z,1009.6
2016-05-17T00:38:27.384Z,1009.67
2016-05-17T00:39:27.402Z,1009.65
2016-05-17T00:40:27.420Z,1009.63
2016-05-17T00:41:27.438Z,1009.63
2016-05-17T00:42:27.472Z,1009.65
2016-05-17T00:43:27.491Z,1009.66
2016-05-17T00:44:27.509Z,1009.59
2016-05-17T00:45:27.528Z,1009.61
2016-05-17T00:46:27.546Z,1009.59
2016-05-17T00:47:27.564Z,1009.55
2016-05-17T00:48:27.599Z,1009.58
2016-05-17T00:49:27.616Z,1009.58
2016-05-17T00:51:27.652Z,1009.55
2016-05-17T00:52:27.671Z,1009.55
2016-05-17T00:53:27.705Z,1009.5
2016-05-17T00:54:27.707Z,1009.44
2016-05-17T00:55:27.742Z,1009.51
2016-05-17T00:56:27.760Z,1009.57
2016-05-17T00:57:27.778Z,1009.57
2016-05-17T00:58:27.812Z,1009.53
2016-05-17T00:59:27.815Z,1009.56
2016-05-17T01:00:27.849Z,1009.54
2016-05-17T01:01:27.868Z,1009.59
2016-05-17T01:02:27.886Z,1009.47
2016-05-17T01:03:27.904Z,1009.5
2016-05-17T01:04:27.922Z,1009.48
2016-05-17T01:05:27.956Z,1009.52
2016-05-17T01:06:27.974Z,1009.54
2016-05-17T01:07:27.993Z,1009.52
2016-05-17T01:08:28.011Z,1009.5
2016-05-17T01:09:28.030Z,1009.52
2016-05-17T01:10:28.048Z,1009.5
2016-05-17T01:11:28.081Z,1009.51
2016-05-17T01:12:28.100Z,1009.52
2016-05-17T01:13:28.119Z,1009.49
2016-05-17T01:14:28.136Z,1009.48
2016-05-17T01:15:28.155Z,1009.46
2016-05-17T01:16:28.174Z,1009.48
2016-05-17T01:17:28.208Z,1009.45
2016-05-17T01:18:28.225Z,1009.51
2016-05-17T01:19:28.244Z,1009.47
2016-05-17T01:20:28.263Z,1009.5
2016-05-17T01:21:28.280Z,1009.45
2016-05-17T01:23:28.317Z,1009.47
2016-05-17T01:24:28.366Z,1009.48
2016-05-17T01:25:28.369Z,1009.54
2016-05-17T01:26:28.388Z,1009.46
2016-05-17T01:27:28.406Z,1009.4
2016-05-17T01:28:28.424Z,1009.43
2016-05-17T01:29:28.442Z,1009.42
2016-05-17T01:30:28.476Z,1009.41
2016-05-17T01:31:28.495Z,1009.45
2016-05-17T01:32:28.512Z,1009.39
2016-05-17T01:33:28.532Z,1009.47
2016-05-17T01:34:28.550Z,1009.39
2016-05-17T01:35:28.568Z,1009.4
2016-05-17T01:36:28.603Z,1009.37
2016-05-17T01:37:28.620Z,1009.38
2016-05-17T01:39:28.656Z,1009.3
2016-05-17T01:40:28.675Z,1009.29
2016-05-17T01:41:28.709Z,1009.31
2016-05-17T01:42:28.728Z,1009.3
2016-05-17T01:43:28.746Z,1009.32
2016-05-17T01:44:28.764Z,1009.28
2016-05-17T01:45:28.782Z,1009.33
2016-05-17T01:46:28.800Z,1009.28
2016-05-17T01:47:28.835Z,1009.33
2016-05-17T01:48:28.852Z,1009.37
2016-05-17T01:49:28.872Z,1009.33
2016-05-17T01:50:28.890Z,1009.32
2016-05-17T01:51:28.908Z,1009.37
2016-05-17T01:52:28.927Z,1009.32
2016-05-17T01:53:28.960Z,1009.3
2016-05-17T01:55:28.996Z,1009.31
2016-05-17T01:56:29.015Z,1009.36
2016-05-17T01:57:29.034Z,1009.33
2016-05-17T01:58:29.052Z,1009.29
2016-05-17T01:59:29.070Z,1009.35
2016-05-17T02:00:29.104Z,1009.27
2016-05-17T02:01:29.123Z,1009.29
2016-05-17T02:02:29.140Z,1009.25
2016-05-17T02:03:29.159Z,1009.27
2016-05-17T02:04:29.177Z,1009.28
2016-05-17T02:05:29.196Z,1009.29
2016-05-17T02:06:29.214Z,1009.21
2016-05-17T02:07:29.248Z,1009.22
2016-05-17T02:08:29.267Z,1009.17
2016-05-17T02:09:29.284Z,1009.21
2016-05-17T02:11:29.322Z,1009.15
2016-05-17T02:12:29.355Z,1009.2
2016-05-17T02:13:29.373Z,1009.2
2016-05-17T02:14:29.392Z,1009.17
2016-05-17T02:15:29.410Z,1009.16
2016-05-17T02:16:29.428Z,1009.17
2016-05-17T02:17:29.447Z,1009.22
2016-05-17T02:18:29.480Z,1009.22
2016-05-17T02:19:29.500Z,1009.23
2016-05-17T02:20:29.516Z,1009.23
2016-05-17T02:21:29.535Z,1009.19
2016-05-17T02:22:29.554Z,1009.13
2016-05-17T02:23:29.572Z,1009.11
2016-05-17T02:24:29.607Z,1009.1
2016-05-17T02:26:29.643Z,1009.1
2016-05-17T02:27:29.661Z,1009.11
2016-05-17T02:28:29.679Z,1009.07
2016-05-17T02:29:29.698Z,1009.1
2016-05-17T02:30:29.732Z,1009.13
2016-05-17T02:31:29.751Z,1009.06
2016-05-17T02:32:29.768Z,1009.05
2016-05-17T02:33:29.787Z,1009.03
2016-05-17T02:34:29.804Z,1009.06
2016-05-17T02:35:29.886Z,1009
2016-05-17T02:36:29.950Z,1008.96
2016-05-17T02:37:29.876Z,1009.01
2016-05-17T02:38:29.956Z,1009.07
2016-05-17T02:39:29.912Z,1008.95
2016-05-17T02:40:29.931Z,1009.05
2016-05-17T02:41:29.948Z,1009.08
2016-05-17T02:42:29.967Z,1009.05
2016-05-17T02:43:30.000Z,1008.99
2016-05-17T02:44:30.019Z,1009.01
2016-05-17T02:45:30.038Z,1009.02
2016-05-17T02:46:30.056Z,1009.06
2016-05-17T02:47:30.075Z,1009.05
2016-05-17T02:48:30.108Z,1009.03
2016-05-17T02:49:30.126Z,1009.01
2016-05-17T02:50:30.144Z,1009.07
2016-05-17T02:51:30.164Z,1009.1
2016-05-17T02:52:30.182Z,1009.1
2016-05-17T02:53:30.200Z,1009.1
2016-05-17T02:54:30.218Z,1009.12
2016-05-17T02:55:30.252Z,1009.09
2016-05-17T02:56:30.271Z,1009.11
2016-05-17T02:58:30.307Z,1009.08
2016-05-17T02:59:30.326Z,1009.03
2016-05-17T03:00:30.344Z,1009.1
2016-05-17T03:01:30.377Z,1009.04
2016-05-17T03:02:30.396Z,1009.07
2016-05-17T03:03:30.414Z,1009.05
2016-05-17T03:04:30.432Z,1009.03
2016-05-17T03:05:30.451Z,1009.01
2016-05-17T03:06:30.906Z,1009
2016-05-17T03:07:30.487Z,1009
2016-05-17T03:08:30.521Z,1008.99
2016-05-17T03:09:30.539Z,1009.04
2016-05-17T03:10:30.558Z,1009.07
2016-05-17T03:11:30.576Z,1008.99
2016-05-17T03:12:30.595Z,1009
2016-05-17T03:14:30.647Z,1008.99
2016-05-17T03:15:30.664Z,1009
2016-05-17T03:16:30.684Z,1008.99
2016-05-17T03:17:30.702Z,1008.98
2016-05-17T03:18:30.720Z,1008.97
2016-05-17T03:19:30.739Z,1008.93
2016-05-17T03:20:30.757Z,1008.95
2016-05-17T03:21:30.790Z,1008.96
2016-05-17T03:22:30.808Z,1008.97
2016-05-17T03:23:30.827Z,1008.94
2016-05-17T03:24:30.846Z,1008.89
2016-05-17T03:25:30.863Z,1008.93
2016-05-17T03:26:30.929Z,1008.87
2016-05-17T03:27:30.916Z,1008.92
2016-05-17T03:28:30.935Z,1008.91
2016-05-17T03:30:30.971Z,1008.95
2016-05-17T03:31:30.989Z,1008.93
2016-05-17T03:32:31.008Z,1008.94
2016-05-17T03:33:31.027Z,1008.96
2016-05-17T03:34:31.045Z,1008.94
2016-05-17T03:35:31.079Z,1008.99
2016-05-17T03:36:31.253Z,1008.9
2016-05-17T03:37:31.115Z,1008.98
2016-05-17T03:38:31.133Z,1008.96
2016-05-17T03:39:31.152Z,1008.91
2016-05-17T03:40:31.170Z,1008.95
2016-05-17T03:41:31.204Z,1008.96
2016-05-17T03:42:31.222Z,1008.92
2016-05-17T03:43:31.240Z,1008.92
2016-05-17T03:44:31.259Z,1008.97
2016-05-17T03:46:31.295Z,1008.89
2016-05-17T03:47:31.329Z,1008.89
2016-05-17T03:48:31.348Z,1008.92
2016-05-17T03:49:31.366Z,1008.96
2016-05-17T03:50:31.383Z,1008.99
2016-05-17T03:51:31.403Z,1008.96
2016-05-17T03:52:31.421Z,1008.98
2016-05-17T03:53:31.439Z,1008.95
2016-05-17T03:54:31.473Z,1008.96
2016-05-17T03:55:31.491Z,1008.96
2016-05-17T03:56:31.510Z,1008.98
2016-05-17T03:57:31.528Z,1008.93
2016-05-17T03:58:31.546Z,1008.92
2016-05-17T03:59:31.565Z,1008.94
2016-05-17T04:01:31.617Z,1008.9
2016-05-17T04:02:31.635Z,1008.9
2016-05-17T04:03:31.653Z,1008.93
2016-05-17T04:04:31.672Z,1008.91
2016-05-17T04:05:31.691Z,1008.94
2016-05-17T04:06:31.834Z,1008.93
2016-05-17T04:07:31.743Z,1008.91
2016-05-17T04:08:31.761Z,1008.94
2016-05-17T04:09:31.779Z,1008.95
2016-05-17T04:10:31.797Z,1008.88
2016-05-17T04:11:31.815Z,1008.92
2016-05-17T04:12:31.834Z,1008.91
2016-05-17T04:13:31.853Z,1008.87
2016-05-17T04:14:31.886Z,1008.88
2016-05-17T04:15:31.905Z,1008.88
2016-05-17T04:16:31.923Z,1008.91
2016-05-17T04:17:31.941Z,1008.93
2016-05-17T04:18:31.959Z,1008.9
2016-05-17T04:19:31.977Z,1008.94
2016-05-17T04:20:31.997Z,1008.9
2016-05-17T04:21:32.047Z,1008.91
2016-05-17T04:22:32.049Z,1008.91
2016-05-17T04:23:32.067Z,1008.92
2016-05-17T04:24:32.085Z,1008.9
2016-05-17T04:25:32.103Z,1008.94
2016-05-17T04:26:32.121Z,1008.92
2016-05-17T04:27:32.140Z,1008.94
2016-05-17T04:28:32.174Z,1008.95
2016-05-17T04:29:32.193Z,1008.91
2016-05-17T04:30:32.210Z,1008.93
2016-05-17T04:31:32.229Z,1008.96
2016-05-17T04:33:32.281Z,1008.92
2016-05-17T04:34:32.299Z,1008.87
2016-05-17T04:35:32.317Z,1008.95
2016-05-17T04:36:32.337Z,1008.92
2016-05-17T04:37:32.371Z,1008.86
2016-05-17T04:38:32.373Z,1008.9
2016-05-17T04:39:32.391Z,1008.89
2016-05-17T04:40:32.425Z,1008.9
2016-05-17T04:41:32.443Z,1008.91
2016-05-17T04:42:32.461Z,1008.94
2016-05-17T04:43:32.480Z,1008.92
2016-05-17T04:44:32.498Z,1008.93
2016-05-17T04:45:32.517Z,1008.95
2016-05-17T04:46:32.551Z,1008.94
2016-05-17T04:47:32.569Z,1008.95
2016-05-17T04:49:32.605Z,1008.89
2016-05-17T04:50:32.624Z,1008.93
2016-05-17T04:51:32.641Z,1008.89
2016-05-17T04:52:32.676Z,1008.89
2016-05-17T04:53:32.695Z,1008.9
2016-05-17T04:54:32.713Z,1008.88
2016-05-17T04:55:32.731Z,1008.89
2016-05-17T04:56:32.749Z,1008.94
2016-05-17T04:57:32.768Z,1008.98
2016-05-17T04:58:32.802Z,1008.96
2016-05-17T04:59:32.819Z,1008.93
2016-05-17T05:00:32.838Z,1008.97
2016-05-17T05:01:32.872Z,1008.97
2016-05-17T05:02:32.875Z,1008.95
2016-05-17T05:03:32.893Z,1008.95
2016-05-17T05:05:32.960Z,1008.89
2016-05-17T05:06:32.963Z,1008.95
2016-05-17T05:07:32.997Z,1009
2016-05-17T05:08:33.000Z,1008.98
2016-05-17T05:09:33.040Z,1009.02
2016-05-17T05:10:33.117Z,1008.96
2016-05-17T05:11:33.178Z,1008.98
2016-05-17T05:12:33.239Z,1009.03
2016-05-17T05:13:33.300Z,1009.02
2016-05-17T05:14:33.348Z,1009
2016-05-17T05:15:33.397Z,1008.98
2016-05-17T05:16:33.432Z,1009.05
2016-05-17T05:17:33.465Z,1008.98
2016-05-17T05:18:33.499Z,1009.01
2016-05-17T05:19:33.528Z,1009.06
2016-05-17T05:21:33.591Z,1009.05
2016-05-17T05:22:33.614Z,1009.01
2016-05-17T05:23:33.637Z,1008.99
2016-05-17T05:24:33.660Z,1008.96
2016-05-17T05:25:33.680Z,1009.01
2016-05-17T05:26:33.701Z,1009.04
2016-05-17T05:27:33.720Z,1009.06
2016-05-17T05:28:33.757Z,1009.08
2016-05-17T05:29:33.776Z,1009.06
2016-05-17T05:30:33.795Z,1009.03
2016-05-17T05:31:33.814Z,1009.06
2016-05-17T05:32:33.833Z,1009.09
2016-05-17T05:33:33.853Z,1009.1
2016-05-17T05:34:33.886Z,1009.11
2016-05-17T05:36:33.924Z,1009.07
2016-05-17T05:37:33.959Z,1009.08
2016-05-17T05:38:33.962Z,1009.06
2016-05-17T05:39:33.996Z,1009.02
2016-05-17T05:40:34.013Z,1009.03
2016-05-17T05:41:34.032Z,1008.97
2016-05-17T05:42:34.051Z,1008.95
2016-05-17T05:43:34.069Z,1008.98
2016-05-17T05:44:34.087Z,1008.96
2016-05-17T05:45:34.106Z,1008.97
2016-05-17T05:46:34.140Z,1008.95
2016-05-17T05:47:34.157Z,1008.98
2016-05-17T05:48:34.177Z,1008.98
2016-05-17T05:49:34.209Z,1008.98
2016-05-17T05:50:34.212Z,1009.05
2016-05-17T05:51:34.247Z,1009.07
2016-05-17T05:52:34.265Z,1009.08
2016-05-17T05:53:34.284Z,1009.11
2016-05-17T05:54:34.302Z,1009.12
2016-05-17T05:55:34.320Z,1009.16
2016-05-17T05:56:34.339Z,1009.2
2016-05-17T05:57:34.373Z,1009.28
2016-05-17T05:58:34.391Z,1009.28
2016-05-17T05:59:34.409Z,1009.26
2016-05-17T06:00:34.428Z,1009.27
2016-05-17T06:01:34.445Z,1009.29
2016-05-17T06:02:34.480Z,1009.27
2016-05-17T06:03:34.498Z,1009.27
2016-05-17T06:04:34.516Z,1009.32
2016-05-17T06:05:34.535Z,1009.37
2016-05-17T06:06:34.552Z,1009.42
2016-05-17T06:08:34.605Z,1009.43
2016-05-17T06:09:34.624Z,1009.35
2016-05-17T06:10:34.641Z,1009.36
2016-05-17T06:11:34.660Z,1009.31
2016-05-17T06:12:34.693Z,1009.3
2016-05-17T06:13:34.712Z,1009.32
2016-05-17T06:14:34.730Z,1009.3
2016-05-17T06:15:34.765Z,1009.33
2016-05-17T06:16:34.767Z,1009.32
2016-05-17T06:17:34.801Z,1009.33
2016-05-17T06:18:34.820Z,1009.37
2016-05-17T06:19:34.837Z,1009.32
2016-05-17T06:20:34.857Z,1009.34
2016-05-17T06:21:35.421Z,1009.3
2016-05-17T06:22:34.908Z,1009.28
2016-05-17T06:24:34.945Z,1009.34
2016-05-17T06:25:34.964Z,1009.32
2016-05-17T06:26:34.982Z,1009.33
2016-05-17T06:27:35.016Z,1009.36
2016-05-17T06:28:35.033Z,1009.37
2016-05-17T06:29:35.053Z,1009.31
2016-05-17T06:30:35.070Z,1009.34
2016-05-17T06:31:35.105Z,1009.37
2016-05-17T06:32:35.123Z,1009.39
2016-05-17T06:33:35.142Z,1009.32
2016-05-17T06:34:35.159Z,1009.35
2016-05-17T06:35:35.178Z,1009.35
2016-05-17T06:36:35.478Z,1009.35
2016-05-17T06:37:35.230Z,1009.39
2016-05-17T06:38:35.249Z,1009.38
2016-05-17T06:40:35.285Z,1009.41
2016-05-17T06:41:35.319Z,1009.42
2016-05-17T06:42:35.338Z,1009.39
2016-05-17T06:43:35.355Z,1009.37
2016-05-17T06:44:35.390Z,1009.45
2016-05-17T06:45:35.393Z,1009.53
2016-05-17T06:46:35.426Z,1009.38
2016-05-17T06:47:35.444Z,1009.46
2016-05-17T06:48:35.478Z,1009.46
2016-05-17T06:49:35.496Z,1009.48
2016-05-17T06:50:35.515Z,1009.46
2016-05-17T06:51:35.784Z,1009.48
2016-05-17T06:52:35.551Z,1009.48
2016-05-17T06:53:35.570Z,1009.45
2016-05-17T06:54:35.588Z,1009.49
2016-05-17T06:56:35.640Z,1009.5
2016-05-17T06:57:35.658Z,1009.53
2016-05-17T06:58:35.678Z,1009.49
2016-05-17T06:59:35.711Z,1009.57
2016-05-17T07:00:35.745Z,1009.54
2016-05-17T07:01:35.747Z,1009.55
2016-05-17T07:02:35.766Z,1009.55
2016-05-17T07:03:35.816Z,1009.54
2016-05-17T07:04:35.818Z,1009.56
2016-05-17T07:05:35.836Z,1009.58
2016-05-17T07:06:35.870Z,1009.6
2016-05-17T07:07:35.873Z,1009.54
2016-05-17T07:08:35.907Z,1009.58
2016-05-17T07:09:35.925Z,1009.57
2016-05-17T07:11:35.962Z,1009.5
2016-05-17T07:12:35.996Z,1009.53
2016-05-17T07:13:36.014Z,1009.48
2016-05-17T07:14:36.048Z,1009.51
2016-05-17T07:15:36.051Z,1009.5
2016-05-17T07:16:36.085Z,1009.47
2016-05-17T07:17:36.104Z,1009.47
2016-05-17T07:18:36.121Z,1009.38
2016-05-17T07:19:36.155Z,1009.41
2016-05-17T07:20:36.157Z,1009.48
2016-05-17T07:21:36.192Z,1009.47
2016-05-17T07:22:36.210Z,1009.47
2016-05-17T07:23:36.244Z,1009.53
2016-05-17T07:24:36.263Z,1009.53
2016-05-17T07:25:36.281Z,1009.49
2016-05-17T07:26:36.299Z,1009.53
2016-05-17T07:27:36.318Z,1009.57
2016-05-17T07:28:36.351Z,1009.6
2016-05-17T07:29:36.370Z,1009.55
2016-05-17T07:30:36.388Z,1009.56
2016-05-17T07:31:36.406Z,1009.54
2016-05-17T07:32:36.440Z,1009.55
2016-05-17T07:33:36.459Z,1009.56
2016-05-17T07:34:36.477Z,1009.56
2016-05-17T07:35:36.495Z,1009.64
2016-05-17T07:36:36.530Z,1009.6
2016-05-17T07:37:36.547Z,1009.61
2016-05-17T07:38:36.566Z,1009.61
2016-05-17T07:39:36.600Z,1009.71
2016-05-17T07:40:36.618Z,1009.62
2016-05-17T07:41:36.636Z,1009.6
2016-05-17T07:43:36.688Z,1009.53
2016-05-17T07:44:36.707Z,1009.52
2016-05-17T07:45:36.724Z,1009.52
2016-05-17T07:46:36.744Z,1009.52
2016-05-17T07:47:36.778Z,1009.59
2016-05-17T07:48:36.796Z,1009.63
2016-05-17T07:49:36.815Z,1009.54
2016-05-17T07:50:36.848Z,1009.61
2016-05-17T07:51:36.866Z,1009.56
2016-05-17T07:52:36.885Z,1009.55
2016-05-17T07:53:36.918Z,1009.53
2016-05-17T07:54:36.937Z,1009.56
2016-05-17T07:55:36.955Z,1009.56
2016-05-17T07:56:36.974Z,1009.53
2016-05-17T07:57:36.992Z,1009.52
2016-05-17T07:59:37.045Z,1009.57
2016-05-17T08:00:37.062Z,1009.45
2016-05-17T08:01:37.097Z,1009.55
2016-05-17T08:02:37.115Z,1009.53
2016-05-17T08:03:37.133Z,1009.48
2016-05-17T08:04:37.167Z,1009.44
2016-05-17T08:05:37.185Z,1009.48
2016-05-17T08:06:37.204Z,1009.51
2016-05-17T08:07:37.222Z,1009.5
2016-05-17T08:08:37.255Z,1009.53
2016-05-17T08:09:37.290Z,1009.53
2016-05-17T08:10:37.292Z,1009.6
2016-05-17T08:11:37.327Z,1009.57
2016-05-17T08:12:37.345Z,1009.57
2016-05-17T08:13:37.363Z,1009.57
2016-05-17T08:15:37.415Z,1009.52
2016-05-17T08:16:37.433Z,1009.52
2016-05-17T08:17:37.468Z,1009.55
2016-05-17T08:18:37.485Z,1009.51
2016-05-17T08:19:37.504Z,1009.48
2016-05-17T08:20:37.538Z,1009.54
2016-05-17T08:21:37.556Z,1009.51
2016-05-17T08:22:37.575Z,1009.51
2016-05-17T08:23:37.593Z,1009.55
2016-05-17T08:24:37.627Z,1009.48
2016-05-17T08:25:37.645Z,1009.52
2016-05-17T08:26:37.664Z,1009.56
2016-05-17T08:27:37.698Z,1009.52
2016-05-17T08:28:37.715Z,1009.49
2016-05-17T08:29:37.734Z,1009.5
2016-05-17T08:31:37.787Z,1009.48
2016-05-17T08:32:37.805Z,1009.48
2016-05-17T08:33:37.839Z,1009.48
2016-05-17T08:34:37.857Z,1009.47
2016-05-17T08:35:37.876Z,1009.38
2016-05-17T08:36:37.909Z,1009.41
2016-05-17T08:37:37.928Z,1009.43
2016-05-17T08:38:37.947Z,1009.55
2016-05-17T08:39:37.964Z,1009.5
2016-05-17T08:40:37.998Z,1009.53
2016-05-17T08:41:38.017Z,1009.56
2016-05-17T08:42:38.035Z,1009.58
2016-05-17T08:43:38.069Z,1009.52
2016-05-17T08:44:38.087Z,1009.57
2016-05-17T08:46:38.139Z,1009.58
2016-05-17T08:47:38.158Z,1009.58
2016-05-17T08:48:38.176Z,1009.58
2016-05-17T08:49:38.210Z,1009.55
2016-05-17T08:50:38.228Z,1009.6
2016-05-17T08:51:38.262Z,1009.61
2016-05-17T08:52:38.265Z,1009.57
2016-05-17T08:53:38.299Z,1009.56
2016-05-17T08:54:38.318Z,1009.59
2016-05-17T08:55:38.335Z,1009.58
2016-05-17T08:56:38.370Z,1009.66
2016-05-17T08:57:38.388Z,1009.6
2016-05-17T08:58:38.406Z,1009.61
2016-05-17T08:59:38.440Z,1009.59
2016-05-17T09:00:38.459Z,1009.54
2016-05-17T09:01:38.476Z,1009.52
2016-05-17T09:02:38.511Z,1009.51
2016-05-17T09:03:38.528Z,1009.58
2016-05-17T09:04:38.547Z,1009.56
2016-05-17T09:05:38.565Z,1009.58
2016-05-17T09:06:38.599Z,1009.57
2016-05-17T09:07:38.617Z,1009.52
2016-05-17T09:08:38.652Z,1009.57
2016-05-17T09:09:38.670Z,1009.53
2016-05-17T09:10:38.689Z,1009.51
2016-05-17T09:11:38.706Z,1009.51
2016-05-17T09:12:38.741Z,1009.53
2016-05-17T09:13:38.758Z,1009.48
2016-05-17T09:14:38.778Z,1009.5
2016-05-17T09:15:38.811Z,1009.59
2016-05-17T09:16:38.830Z,1009.54
2016-05-17T09:18:38.882Z,1009.69
2016-05-17T09:19:38.899Z,1009.63
2016-05-17T09:20:38.918Z,1009.72
2016-05-17T09:21:39.030Z,1009.67
2016-05-17T09:22:39.268Z,1009.65
2016-05-17T09:23:38.989Z,1009.62
2016-05-17T09:24:39.007Z,1009.7
2016-05-17T09:25:39.041Z,1009.71
2016-05-17T09:26:39.060Z,1009.71
2016-05-17T09:27:39.078Z,1009.69
2016-05-17T09:28:39.112Z,1009.74
2016-05-17T09:29:39.130Z,1009.76
2016-05-17T09:30:39.148Z,1009.73
2016-05-17T09:31:39.167Z,1009.8
2016-05-17T09:32:39.201Z,1009.75
2016-05-17T09:34:39.237Z,1009.82
2016-05-17T09:35:39.256Z,1009.8
2016-05-17T09:36:39.446Z,1009.79
2016-05-17T09:37:39.339Z,1009.84
2016-05-17T09:38:39.326Z,1009.81
2016-05-17T09:39:39.361Z,1009.82
2016-05-17T09:40:39.378Z,1009.85
2016-05-17T09:41:39.397Z,1009.8
2016-05-17T09:42:39.431Z,1009.85
2016-05-17T09:43:39.449Z,1009.82
2016-05-17T09:44:39.467Z,1009.84
2016-05-17T09:45:39.485Z,1009.79
2016-05-17T09:46:39.519Z,1009.78
2016-05-17T09:47:39.538Z,1009.83
2016-05-17T09:48:39.555Z,1009.81
2016-05-17T09:50:39.608Z,1009.78
2016-05-17T09:51:39.627Z,1009.87
2016-05-17T09:52:39.661Z,1009.87
2016-05-17T09:53:39.680Z,1009.83
2016-05-17T09:54:39.696Z,1009.87
2016-05-17T09:55:39.716Z,1009.91
2016-05-17T09:56:39.750Z,1009.86
2016-05-17T09:57:39.768Z,1009.91
2016-05-17T09:58:39.787Z,1009.92
2016-05-17T09:59:39.804Z,1009.94
2016-05-17T10:00:39.838Z,1009.92
2016-05-17T10:01:39.857Z,1009.93
2016-05-17T10:02:39.890Z,1009.92
2016-05-17T10:03:39.909Z,1009.89
2016-05-17T10:04:39.928Z,1009.86
2016-05-17T10:06:39.979Z,1009.83
2016-05-17T10:07:40.014Z,1009.83
2016-05-17T10:08:40.032Z,1009.85
2016-05-17T10:09:40.050Z,1009.8
2016-05-17T10:10:40.069Z,1009.83
2016-05-17T10:11:40.086Z,1009.84
2016-05-17T10:12:40.121Z,1009.77
2016-05-17T10:13:40.155Z,1009.78
2016-05-17T10:14:40.173Z,1009.82
2016-05-17T10:15:40.192Z,1009.82
2016-05-17T10:16:40.210Z,1009.8
2016-05-17T10:17:40.244Z,1009.82
2016-05-17T10:18:40.262Z,1009.85
2016-05-17T10:19:40.280Z,1009.92
2016-05-17T10:21:40.333Z,1009.86
2016-05-17T10:22:40.351Z,1009.86
2016-05-17T10:23:40.385Z,1009.87
2016-05-17T10:24:40.402Z,1009.85
2016-05-17T10:25:40.438Z,1009.91
2016-05-17T10:26:40.455Z,1009.87
2016-05-17T10:27:40.473Z,1009.83
2016-05-17T10:28:40.508Z,1009.87
2016-05-17T10:29:40.526Z,1009.88
2016-05-17T10:30:40.559Z,1009.85
2016-05-17T10:31:40.579Z,1009.87
2016-05-17T10:32:40.596Z,1009.88
2016-05-17T10:33:40.615Z,1009.83
2016-05-17T10:34:40.649Z,1009.84
2016-05-17T10:35:40.667Z,1009.89
2016-05-17T10:36:40.700Z,1009.82
2016-05-17T10:37:40.720Z,1009.78
2016-05-17T10:38:40.737Z,1009.78
2016-05-17T10:39:40.772Z,1009.73
2016-05-17T10:40:40.790Z,1009.75
2016-05-17T10:41:40.809Z,1009.76
2016-05-17T10:42:40.842Z,1009.72
2016-05-17T10:43:40.861Z,1009.77
2016-05-17T10:44:40.895Z,1009.77
2016-05-17T10:45:40.913Z,1009.75
2016-05-17T10:46:40.931Z,1009.69
2016-05-17T10:47:40.965Z,1009.65
2016-05-17T10:48:40.983Z,1009.62
2016-05-17T10:49:41.002Z,1009.66
2016-05-17T10:50:41.036Z,1009.72
2016-05-17T10:51:41.055Z,1009.59
2016-05-17T10:53:41.106Z,1009.68
2016-05-17T10:54:41.124Z,1009.65
2016-05-17T10:55:41.158Z,1009.6
2016-05-17T10:56:41.177Z,1009.57
2016-05-17T10:57:41.195Z,1009.62
2016-05-17T10:58:41.229Z,1009.53
2016-05-17T10:59:41.247Z,1009.43
2016-05-17T11:00:41.282Z,1009.5
2016-05-17T11:01:41.299Z,1009.49
2016-05-17T11:02:41.318Z,1009.46
2016-05-17T11:03:41.351Z,1009.51
2016-05-17T11:04:41.370Z,1009.61
2016-05-17T11:05:41.404Z,1009.6
2016-05-17T11:06:41.422Z,1009.7
2016-05-17T11:07:41.440Z,1009.63
2016-05-17T11:09:41.493Z,1009.68
2016-05-17T11:10:41.511Z,1009.67
2016-05-17T11:11:41.545Z,1009.72
2016-05-17T11:12:41.563Z,1009.69
2016-05-17T11:13:41.581Z,1009.76
2016-05-17T11:14:41.616Z,1009.65
2016-05-17T11:15:41.633Z,1009.67
2016-05-17T11:16:41.652Z,1009.68
2016-05-17T11:17:41.686Z,1009.71
2016-05-17T11:18:41.705Z,1009.76
2016-05-17T11:19:41.723Z,1009.67
2016-05-17T11:20:41.758Z,1009.74
2016-05-17T11:21:41.774Z,1009.72
2016-05-17T11:22:41.793Z,1009.73
2016-05-17T11:23:41.828Z,1009.67
2016-05-17T11:25:41.880Z,1009.7
2016-05-17T11:26:41.899Z,1009.66
2016-05-17T11:27:41.932Z,1009.6
2016-05-17T11:28:41.935Z,1009.65
2016-05-17T11:29:41.968Z,1009.65
2016-05-17T11:30:41.987Z,1009.68
2016-05-17T11:31:42.005Z,1009.67
2016-05-17T11:32:42.040Z,1009.68
2016-05-17T11:33:42.057Z,1009.69
2016-05-17T11:34:42.076Z,1009.65
2016-05-17T11:35:42.110Z,1009.73
2016-05-17T11:36:42.128Z,1009.63
2016-05-17T11:37:42.208Z,1009.68
2016-05-17T11:38:42.181Z,1009.68
2016-05-17T11:39:42.198Z,1009.66
2016-05-17T11:41:42.251Z,1009.63
2016-05-17T11:42:42.269Z,1009.64
2016-05-17T11:43:42.303Z,1009.6
2016-05-17T11:44:42.321Z,1009.55
2016-05-17T11:45:42.339Z,1009.55
2016-05-17T11:46:42.373Z,1009.62
2016-05-17T11:47:42.392Z,1009.55
2016-05-17T11:48:42.410Z,1009.53
2016-05-17T11:49:42.444Z,1009.55
2016-05-17T11:50:42.463Z,1009.55
2016-05-17T11:51:42.496Z,1009.47
2016-05-17T11:52:42.514Z,1009.49
2016-05-17T11:53:42.533Z,1009.55
2016-05-17T11:54:42.566Z,1009.55
2016-05-17T11:56:42.604Z,1009.51
2016-05-17T11:57:42.637Z,1009.45
2016-05-17T11:58:42.656Z,1009.54
2016-05-17T11:59:42.691Z,1009.45
2016-05-17T12:00:42.707Z,1009.51
2016-05-17T12:01:42.742Z,1009.47
2016-05-17T12:02:42.760Z,1009.49
2016-05-17T12:03:42.779Z,1009.41
2016-05-17T12:04:42.796Z,1009.37
2016-05-17T12:05:42.832Z,1009.46
2016-05-17T12:06:43.052Z,1009.32
2016-05-17T12:07:42.867Z,1009.35
2016-05-17T12:08:42.901Z,1009.32
2016-05-17T12:09:42.920Z,1009.28
2016-05-17T12:10:42.953Z,1009.33
2016-05-17T12:11:42.972Z,1009.3
2016-05-17T12:12:42.990Z,1009.33
2016-05-17T12:13:43.025Z,1009.19
2016-05-17T12:14:43.042Z,1009.27
2016-05-17T12:15:43.061Z,1009.3
2016-05-17T12:16:43.095Z,1009.31
2016-05-17T12:17:43.113Z,1009.33
2016-05-17T12:18:43.131Z,1009.27
2016-05-17T12:19:43.166Z,1009.32
2016-05-17T12:20:43.184Z,1009.21
2016-05-17T12:21:43.530Z,1009.22
2016-05-17T12:22:43.236Z,1009.27
2016-05-17T12:23:43.254Z,1009.2
2016-05-17T12:24:43.288Z,1009.23
2016-05-17T12:25:43.307Z,1009.29
2016-05-17T12:26:43.325Z,1009.29
2016-05-17T12:28:43.377Z,1009.24
2016-05-17T12:29:43.396Z,1009.34
2016-05-17T12:30:43.446Z,1009.32
2016-05-17T12:31:43.448Z,1009.37
2016-05-17T12:32:43.466Z,1009.3
2016-05-17T12:33:43.485Z,1009.35
2016-05-17T12:34:43.518Z,1009.27
2016-05-17T12:35:43.537Z,1009.31
2016-05-17T12:36:43.554Z,1009.42
2016-05-17T12:37:43.589Z,1009.32
2016-05-17T12:38:43.607Z,1009.36
2016-05-17T12:39:43.626Z,1009.31
2016-05-17T12:40:43.659Z,1009.37
2016-05-17T12:41:43.678Z,1009.29
2016-05-17T12:42:43.696Z,1009.3
2016-05-17T12:44:43.748Z,1009.3
2016-05-17T12:45:43.782Z,1009.31
2016-05-17T12:46:43.801Z,1009.24
2016-05-17T12:47:43.819Z,1009.22
2016-05-17T12:48:43.836Z,1009.15
2016-05-17T12:49:43.871Z,1009.26